sensor_id;sensor_type;location;lat;lon;timestamp;temperature;humidity
4697;DHT22;2362;50.780;0.292;2023-06-26T00:02:20;17.20;99.90
4697;DHT22;2362;50.780;0.292;2023-06-26T00:04:46;17.10;99.90
4697;DHT22;2362;50.780;0.292;2023-06-26T00:07:11;17.10;99.90
4697;DHT22;2362;50.780;0.292;2023-06-26T00:09:37;17.10;99.90
4697;DHT22;2362;50.780;0.292;2023-06-26T00:12:18;17.20;99.90
4697;DHT22;2362;50.780;0.292;2023-06-26T00:14:44;17.20;99.90
4697;DHT22;2362;50.780;0.292;2023-06-26T00:17:09;17.20;99.90
4697;DHT22;2362;50.780;0.292;2023-06-26T00:19:35;17.20;99.90
4697;DHT22;2362;50.780;0.292;2023-06-26T00:22:00;17.20;99.90
4697;DHT22;2362;50.780;0.292;2023-06-26T00:24:26;17.30;99.90
4697;DHT22;2362;50.780;0.292;2023-06-26T00:26:52;17.20;99.90
4697;DHT22;2362;50.780;0.292;2023-06-26T00:29:17;17.20;99.90
4697;DHT22;2362;50.780;0.292;2023-06-26T00:31:43;17.20;99.90
4697;DHT22;2362;50.780;0.292;2023-06-26T00:34:09;17.10;99.90
4697;DHT22;2362;50.780;0.292;2023-06-26T00:36:34;17.10;99.90
4697;DHT22;2362;50.780;0.292;2023-06-26T00:39:00;17.10;99.90
4697;DHT22;2362;50.780;0.292;2023-06-26T00:41:26;17.10;99.90
4697;DHT22;2362;50.780;0.292;2023-06-26T00:43:51;17.10;99.90
4697;DHT22;2362;50.780;0.292;2023-06-26T00:46:17;17.10;99.90
4697;DHT22;2362;50.780;0.292;2023-06-26T00:48:44;17.00;99.90
4697;DHT22;2362;50.780;0.292;2023-06-26T00:51:11;16.90;99.90
4697;DHT22;2362;50.780;0.292;2023-06-26T00:53:37;16.90;99.90
4697;DHT22;2362;50.780;0.292;2023-06-26T00:56:03;16.90;99.90
4697;DHT22;2362;50.780;0.292;2023-06-26T00:58:30;16.80;99.90
4697;DHT22;2362;50.780;0.292;2023-06-26T01:00:56;16.70;99.90
4697;DHT22;2362;50.780;0.292;2023-06-26T01:03:25;16.70;99.90
4697;DHT22;2362;50.780;0.292;2023-06-26T01:05:56;16.60;99.90
4697;DHT22;2362;50.780;0.292;2023-06-26T01:08:23;16.60;99.90
4697;DHT22;2362;50.780;0.292;2023-06-26T01:10:49;16.50;99.90
4697;DHT22;2362;50.780;0.292;2023-06-26T01:13:16;16.50;99.90
4697;DHT22;2362;50.780;0.292;2023-06-26T01:15:42;16.40;99.90
4697;DHT22;2362;50.780;0.292;2023-06-26T01:18:08;16.40;99.90
4697;DHT22;2362;50.780;0.292;2023-06-26T01:20:38;16.30;99.90
4697;DHT22;2362;50.780;0.292;2023-06-26T01:23:25;16.30;99.90
4697;DHT22;2362;50.780;0.292;2023-06-26T01:26:17;16.40;99.90
4697;DHT22;2362;50.780;0.292;2023-06-26T01:28:43;16.30;99.90
4697;DHT22;2362;50.780;0.292;2023-06-26T01:31:13;16.30;99.90
4697;DHT22;2362;50.780;0.292;2023-06-26T01:33:41;16.30;99.90
4697;DHT22;2362;50.780;0.292;2023-06-26T01:36:07;16.20;99.90
4697;DHT22;2362;50.780;0.292;2023-06-26T01:38:33;16.20;99.90
4697;DHT22;2362;50.780;0.292;2023-06-26T01:41:00;16.30;99.90
4697;DHT22;2362;50.780;0.292;2023-06-26T01:46:35;16.30;99.90
4697;DHT22;2362;50.780;0.292;2023-06-26T01:49:09;16.30;99.90
4697;DHT22;2362;50.780;0.292;2023-06-26T01:51:46;16.20;99.90
4697;DHT22;2362;50.780;0.292;2023-06-26T01:54:18;16.20;99.90
4697;DHT22;2362;50.780;0.292;2023-06-26T01:56:46;16.10;99.90
4697;DHT22;2362;50.780;0.292;2023-06-26T01:59:14;16.10;99.90
4697;DHT22;2362;50.780;0.292;2023-06-26T02:01:40;16.10;99.90
4697;DHT22;2362;50.780;0.292;2023-06-26T02:04:06;16.00;99.90
4697;DHT22;2362;50.780;0.292;2023-06-26T02:06:31;16.00;99.90
4697;DHT22;2362;50.780;0.292;2023-06-26T02:08:57;15.90;99.90
4697;DHT22;2362;50.780;0.292;2023-06-26T02:11:23;15.90;99.90
4697;DHT22;2362;50.780;0.292;2023-06-26T02:13:49;15.90;99.90
4697;DHT22;2362;50.780;0.292;2023-06-26T02:16:14;15.90;99.90
4697;DHT22;2362;50.780;0.292;2023-06-26T02:18:40;15.90;99.90
4697;DHT22;2362;50.780;0.292;2023-06-26T02:21:07;15.90;99.90
4697;DHT22;2362;50.780;0.292;2023-06-26T02:23:32;15.90;99.90
4697;DHT22;2362;50.780;0.292;2023-06-26T02:25:58;15.90;99.90
4697;DHT22;2362;50.780;0.292;2023-06-26T02:28:24;15.90;99.90
4697;DHT22;2362;50.780;0.292;2023-06-26T02:30:49;15.90;99.90
4697;DHT22;2362;50.780;0.292;2023-06-26T02:33:15;15.90;99.90
4697;DHT22;2362;50.780;0.292;2023-06-26T02:35:40;15.80;99.90
4697;DHT22;2362;50.780;0.292;2023-06-26T02:38:06;15.80;99.90
4697;DHT22;2362;50.780;0.292;2023-06-26T02:40:32;15.90;99.90
4697;DHT22;2362;50.780;0.292;2023-06-26T02:42:58;15.80;99.90
4697;DHT22;2362;50.780;0.292;2023-06-26T02:45:24;15.80;99.90
4697;DHT22;2362;50.780;0.292;2023-06-26T02:47:50;15.80;99.90
4697;DHT22;2362;50.780;0.292;2023-06-26T02:50:15;15.90;99.90
4697;DHT22;2362;50.780;0.292;2023-06-26T02:52:41;15.90;99.90
4697;DHT22;2362;50.780;0.292;2023-06-26T02:55:07;15.90;99.90
4697;DHT22;2362;50.780;0.292;2023-06-26T02:57:33;15.90;99.90
4697;DHT22;2362;50.780;0.292;2023-06-26T02:59:58;16.00;99.90
4697;DHT22;2362;50.780;0.292;2023-06-26T03:02:24;15.90;99.90
4697;DHT22;2362;50.780;0.292;2023-06-26T03:04:49;15.90;99.90
4697;DHT22;2362;50.780;0.292;2023-06-26T03:07:15;15.80;99.90
4697;DHT22;2362;50.780;0.292;2023-06-26T03:09:41;15.90;99.90
4697;DHT22;2362;50.780;0.292;2023-06-26T03:12:07;15.80;99.90
4697;DHT22;2362;50.780;0.292;2023-06-26T03:14:33;15.80;99.90
4697;DHT22;2362;50.780;0.292;2023-06-26T03:16:59;15.80;99.90
4697;DHT22;2362;50.780;0.292;2023-06-26T03:19:28;15.80;99.90
4697;DHT22;2362;50.780;0.292;2023-06-26T03:21:54;15.80;99.90
4697;DHT22;2362;50.780;0.292;2023-06-26T03:24:20;15.70;99.90
4697;DHT22;2362;50.780;0.292;2023-06-26T03:26:46;15.60;99.90
4697;DHT22;2362;50.780;0.292;2023-06-26T03:29:12;15.60;99.90
4697;DHT22;2362;50.780;0.292;2023-06-26T03:31:37;15.60;99.90
4697;DHT22;2362;50.780;0.292;2023-06-26T03:34:03;15.60;99.90
4697;DHT22;2362;50.780;0.292;2023-06-26T03:36:29;15.60;99.90
4697;DHT22;2362;50.780;0.292;2023-06-26T03:38:54;15.60;99.90
4697;DHT22;2362;50.780;0.292;2023-06-26T03:41:23;15.60;99.90
4697;DHT22;2362;50.780;0.292;2023-06-26T03:43:49;15.60;99.90
4697;DHT22;2362;50.780;0.292;2023-06-26T03:46:14;15.50;99.90
4697;DHT22;2362;50.780;0.292;2023-06-26T03:48:40;15.60;99.90
4697;DHT22;2362;50.780;0.292;2023-06-26T03:51:06;15.60;99.90
4697;DHT22;2362;50.780;0.292;2023-06-26T03:53:33;15.60;99.90
4697;DHT22;2362;50.780;0.292;2023-06-26T03:55:59;15.50;99.90
4697;DHT22;2362;50.780;0.292;2023-06-26T03:58:24;15.50;99.90
4697;DHT22;2362;50.780;0.292;2023-06-26T04:00:51;15.60;99.90
4697;DHT22;2362;50.780;0.292;2023-06-26T04:03:17;15.60;99.90
4697;DHT22;2362;50.780;0.292;2023-06-26T04:05:43;15.60;99.90
4697;DHT22;2362;50.780;0.292;2023-06-26T04:08:09;15.60;99.90
4697;DHT22;2362;50.780;0.292;2023-06-26T04:10:35;15.60;99.90
4697;DHT22;2362;50.780;0.292;2023-06-26T04:13:02;15.60;99.90
4697;DHT22;2362;50.780;0.292;2023-06-26T04:15:28;15.60;99.90
4697;DHT22;2362;50.780;0.292;2023-06-26T04:17:53;15.60;99.90
4697;DHT22;2362;50.780;0.292;2023-06-26T04:20:19;15.60;99.90
4697;DHT22;2362;50.780;0.292;2023-06-26T04:22:44;15.60;99.90
4697;DHT22;2362;50.780;0.292;2023-06-26T04:25:10;15.60;99.90
4697;DHT22;2362;50.780;0.292;2023-06-26T04:27:39;15.70;99.90
4697;DHT22;2362;50.780;0.292;2023-06-26T04:30:05;15.60;99.90
4697;DHT22;2362;50.780;0.292;2023-06-26T04:32:31;15.60;99.90
4697;DHT22;2362;50.780;0.292;2023-06-26T04:34:57;15.60;99.90
4697;DHT22;2362;50.780;0.292;2023-06-26T04:37:22;15.60;99.90
4697;DHT22;2362;50.780;0.292;2023-06-26T04:39:50;15.70;99.90
4697;DHT22;2362;50.780;0.292;2023-06-26T04:42:15;15.60;99.90
4697;DHT22;2362;50.780;0.292;2023-06-26T04:44:41;15.60;99.90
4697;DHT22;2362;50.780;0.292;2023-06-26T04:47:08;15.60;99.90
4697;DHT22;2362;50.780;0.292;2023-06-26T04:49:33;15.70;99.90
4697;DHT22;2362;50.780;0.292;2023-06-26T04:51:59;15.70;99.90
4697;DHT22;2362;50.780;0.292;2023-06-26T04:54:28;15.80;99.90
4697;DHT22;2362;50.780;0.292;2023-06-26T04:56:54;15.80;99.90
4697;DHT22;2362;50.780;0.292;2023-06-26T04:59:20;15.80;99.90
4697;DHT22;2362;50.780;0.292;2023-06-26T05:01:45;15.90;99.90
4697;DHT22;2362;50.780;0.292;2023-06-26T05:04:13;16.00;99.90
4697;DHT22;2362;50.780;0.292;2023-06-26T05:06:40;16.90;99.90
4697;DHT22;2362;50.780;0.292;2023-06-26T05:09:06;17.70;99.90
4697;DHT22;2362;50.780;0.292;2023-06-26T05:11:31;18.30;99.90
4697;DHT22;2362;50.780;0.292;2023-06-26T05:13:57;18.40;99.90
4697;DHT22;2362;50.780;0.292;2023-06-26T05:16:22;18.70;99.90
4697;DHT22;2362;50.780;0.292;2023-06-26T05:18:48;19.10;99.90
4697;DHT22;2362;50.780;0.292;2023-06-26T05:21:15;19.50;99.90
4697;DHT22;2362;50.780;0.292;2023-06-26T05:23:42;20.00;99.90
4697;DHT22;2362;50.780;0.292;2023-06-26T05:26:10;20.40;99.90
4697;DHT22;2362;50.780;0.292;2023-06-26T05:28:37;20.00;99.90
4697;DHT22;2362;50.780;0.292;2023-06-26T05:31:03;20.00;99.90
4697;DHT22;2362;50.780;0.292;2023-06-26T05:33:30;20.00;99.90
4697;DHT22;2362;50.780;0.292;2023-06-26T05:35:56;20.50;99.90
4697;DHT22;2362;50.780;0.292;2023-06-26T05:38:24;20.20;99.90
4697;DHT22;2362;50.780;0.292;2023-06-26T05:40:50;20.60;99.90
4697;DHT22;2362;50.780;0.292;2023-06-26T05:43:16;20.70;99.90
4697;DHT22;2362;50.780;0.292;2023-06-26T05:45:42;21.00;99.90
4697;DHT22;2362;50.780;0.292;2023-06-26T05:48:07;21.60;99.90
4697;DHT22;2362;50.780;0.292;2023-06-26T05:50:33;21.30;99.90
4697;DHT22;2362;50.780;0.292;2023-06-26T05:53:00;21.10;99.90
4697;DHT22;2362;50.780;0.292;2023-06-26T05:55:28;21.80;99.90
4697;DHT22;2362;50.780;0.292;2023-06-26T05:57:55;21.80;99.90
4697;DHT22;2362;50.780;0.292;2023-06-26T06:00:22;22.10;99.90
4697;DHT22;2362;50.780;0.292;2023-06-26T06:02:48;21.60;99.90
4697;DHT22;2362;50.780;0.292;2023-06-26T06:05:13;22.20;99.90
4697;DHT22;2362;50.780;0.292;2023-06-26T06:07:39;22.50;99.90
4697;DHT22;2362;50.780;0.292;2023-06-26T06:10:05;22.30;99.90
4697;DHT22;2362;50.780;0.292;2023-06-26T06:12:30;22.50;99.90
4697;DHT22;2362;50.780;0.292;2023-06-26T06:14:56;22.50;99.90
4697;DHT22;2362;50.780;0.292;2023-06-26T06:17:22;22.60;99.90
4697;DHT22;2362;50.780;0.292;2023-06-26T06:19:48;22.90;99.90
4697;DHT22;2362;50.780;0.292;2023-06-26T06:22:14;22.90;99.90
4697;DHT22;2362;50.780;0.292;2023-06-26T06:24:40;22.70;99.90
4697;DHT22;2362;50.780;0.292;2023-06-26T06:27:05;21.90;99.90
4697;DHT22;2362;50.780;0.292;2023-06-26T06:29:31;22.10;99.90
4697;DHT22;2362;50.780;0.292;2023-06-26T06:31:57;22.50;99.90
4697;DHT22;2362;50.780;0.292;2023-06-26T06:34:22;22.60;99.90
4697;DHT22;2362;50.780;0.292;2023-06-26T06:36:48;22.50;99.90
4697;DHT22;2362;50.780;0.292;2023-06-26T06:39:15;22.50;99.90
4697;DHT22;2362;50.780;0.292;2023-06-26T06:41:41;22.80;99.90
4697;DHT22;2362;50.780;0.292;2023-06-26T06:44:07;23.20;99.90
4697;DHT22;2362;50.780;0.292;2023-06-26T06:46:32;23.30;99.90
4697;DHT22;2362;50.780;0.292;2023-06-26T06:48:58;23.00;99.90
4697;DHT22;2362;50.780;0.292;2023-06-26T06:51:23;23.20;99.90
4697;DHT22;2362;50.780;0.292;2023-06-26T06:53:49;23.30;99.90
4697;DHT22;2362;50.780;0.292;2023-06-26T06:56:14;22.90;99.90
4697;DHT22;2362;50.780;0.292;2023-06-26T06:58:40;22.50;99.90
4697;DHT22;2362;50.780;0.292;2023-06-26T07:01:11;22.70;99.90
4697;DHT22;2362;50.780;0.292;2023-06-26T07:03:36;22.40;99.90
4697;DHT22;2362;50.780;0.292;2023-06-26T07:06:02;22.30;99.90
4697;DHT22;2362;50.780;0.292;2023-06-26T07:08:28;22.30;99.90
4697;DHT22;2362;50.780;0.292;2023-06-26T07:10:54;22.70;99.90
4697;DHT22;2362;50.780;0.292;2023-06-26T07:13:22;23.10;99.90
4697;DHT22;2362;50.780;0.292;2023-06-26T07:15:47;23.20;99.90
4697;DHT22;2362;50.780;0.292;2023-06-26T07:18:14;22.90;99.90
4697;DHT22;2362;50.780;0.292;2023-06-26T07:20:40;22.50;99.90
4697;DHT22;2362;50.780;0.292;2023-06-26T07:23:05;22.10;99.90
4697;DHT22;2362;50.780;0.292;2023-06-26T07:25:31;22.60;99.90
4697;DHT22;2362;50.780;0.292;2023-06-26T07:27:57;22.90;99.90
4697;DHT22;2362;50.780;0.292;2023-06-26T07:30:23;22.70;99.90
4697;DHT22;2362;50.780;0.292;2023-06-26T07:32:49;22.90;99.90
4697;DHT22;2362;50.780;0.292;2023-06-26T07:35:15;22.80;99.90
4697;DHT22;2362;50.780;0.292;2023-06-26T07:37:41;23.60;99.90
4697;DHT22;2362;50.780;0.292;2023-06-26T07:40:08;23.50;99.90
4697;DHT22;2362;50.780;0.292;2023-06-26T07:42:34;23.50;99.90
4697;DHT22;2362;50.780;0.292;2023-06-26T07:45:00;23.00;99.90
4697;DHT22;2362;50.780;0.292;2023-06-26T07:47:25;22.80;99.90
4697;DHT22;2362;50.780;0.292;2023-06-26T07:49:51;22.60;99.90
4697;DHT22;2362;50.780;0.292;2023-06-26T07:52:19;22.80;99.90
4697;DHT22;2362;50.780;0.292;2023-06-26T07:54:45;22.80;99.90
4697;DHT22;2362;50.780;0.292;2023-06-26T07:57:11;23.10;99.90
4697;DHT22;2362;50.780;0.292;2023-06-26T07:59:38;22.30;99.90
4697;DHT22;2362;50.780;0.292;2023-06-26T08:02:04;22.10;99.90
4697;DHT22;2362;50.780;0.292;2023-06-26T08:04:31;22.70;99.90
4697;DHT22;2362;50.780;0.292;2023-06-26T08:06:58;22.20;99.90
4697;DHT22;2362;50.780;0.292;2023-06-26T08:09:29;21.60;99.90
4697;DHT22;2362;50.780;0.292;2023-06-26T08:11:56;21.70;99.90
4697;DHT22;2362;50.780;0.292;2023-06-26T08:14:22;21.70;99.90
4697;DHT22;2362;50.780;0.292;2023-06-26T08:16:49;22.40;99.90
4697;DHT22;2362;50.780;0.292;2023-06-26T08:19:15;22.80;99.90
4697;DHT22;2362;50.780;0.292;2023-06-26T08:21:42;22.90;99.90
4697;DHT22;2362;50.780;0.292;2023-06-26T08:24:08;23.10;99.90
4697;DHT22;2362;50.780;0.292;2023-06-26T08:26:35;23.00;99.90
4697;DHT22;2362;50.780;0.292;2023-06-26T08:29:01;23.40;99.90
4697;DHT22;2362;50.780;0.292;2023-06-26T08:31:33;23.20;99.90
4697;DHT22;2362;50.780;0.292;2023-06-26T08:34:00;22.90;99.90
4697;DHT22;2362;50.780;0.292;2023-06-26T08:36:26;22.50;99.90
4697;DHT22;2362;50.780;0.292;2023-06-26T08:38:51;22.70;99.90
4697;DHT22;2362;50.780;0.292;2023-06-26T08:41:17;23.00;99.90
4697;DHT22;2362;50.780;0.292;2023-06-26T08:43:43;22.70;99.90
4697;DHT22;2362;50.780;0.292;2023-06-26T08:46:08;22.00;99.90
4697;DHT22;2362;50.780;0.292;2023-06-26T08:48:35;21.80;99.90
4697;DHT22;2362;50.780;0.292;2023-06-26T08:51:09;22.00;99.90
4697;DHT22;2362;50.780;0.292;2023-06-26T08:56:15;23.70;99.90
4697;DHT22;2362;50.780;0.292;2023-06-26T08:58:43;23.60;99.90
4697;DHT22;2362;50.780;0.292;2023-06-26T09:01:09;23.30;99.90
4697;DHT22;2362;50.780;0.292;2023-06-26T09:03:36;23.40;99.90
4697;DHT22;2362;50.780;0.292;2023-06-26T09:06:02;23.80;99.90
4697;DHT22;2362;50.780;0.292;2023-06-26T09:08:27;24.10;99.90
4697;DHT22;2362;50.780;0.292;2023-06-26T09:10:53;23.40;99.90
4697;DHT22;2362;50.780;0.292;2023-06-26T09:13:19;23.70;99.90
4697;DHT22;2362;50.780;0.292;2023-06-26T09:15:45;24.30;99.90
4697;DHT22;2362;50.780;0.292;2023-06-26T09:18:12;24.20;99.90
4697;DHT22;2362;50.780;0.292;2023-06-26T09:20:38;24.10;99.90
4697;DHT22;2362;50.780;0.292;2023-06-26T09:23:04;24.20;99.90
4697;DHT22;2362;50.780;0.292;2023-06-26T09:25:29;24.10;99.90
4697;DHT22;2362;50.780;0.292;2023-06-26T09:27:56;23.60;99.90
4697;DHT22;2362;50.780;0.292;2023-06-26T09:30:22;23.90;99.90
4697;DHT22;2362;50.780;0.292;2023-06-26T09:32:48;23.50;99.90
4697;DHT22;2362;50.780;0.292;2023-06-26T09:35:16;23.40;99.90
4697;DHT22;2362;50.780;0.292;2023-06-26T09:37:42;23.80;99.90
4697;DHT22;2362;50.780;0.292;2023-06-26T09:40:09;23.80;99.90
4697;DHT22;2362;50.780;0.292;2023-06-26T09:42:35;23.70;99.90
4697;DHT22;2362;50.780;0.292;2023-06-26T09:45:02;23.70;99.90
4697;DHT22;2362;50.780;0.292;2023-06-26T09:47:30;23.40;99.90
4697;DHT22;2362;50.780;0.292;2023-06-26T09:49:56;23.20;99.90
4697;DHT22;2362;50.780;0.292;2023-06-26T09:52:26;23.30;99.90
4697;DHT22;2362;50.780;0.292;2023-06-26T09:55:07;23.30;99.90
4697;DHT22;2362;50.780;0.292;2023-06-26T09:57:34;23.60;99.90
4697;DHT22;2362;50.780;0.292;2023-06-26T10:00:04;23.90;99.90
4697;DHT22;2362;50.780;0.292;2023-06-26T10:02:30;24.00;99.90
4697;DHT22;2362;50.780;0.292;2023-06-26T10:04:56;23.80;99.90
4697;DHT22;2362;50.780;0.292;2023-06-26T10:07:22;23.10;99.90
4697;DHT22;2362;50.780;0.292;2023-06-26T10:09:48;23.00;99.90
4697;DHT22;2362;50.780;0.292;2023-06-26T10:12:20;22.90;99.90
4697;DHT22;2362;50.780;0.292;2023-06-26T10:14:52;22.70;99.90
4697;DHT22;2362;50.780;0.292;2023-06-26T10:17:20;22.80;99.90
4697;DHT22;2362;50.780;0.292;2023-06-26T10:19:47;23.00;99.90
4697;DHT22;2362;50.780;0.292;2023-06-26T10:22:15;22.80;99.90
4697;DHT22;2362;50.780;0.292;2023-06-26T10:24:43;22.50;99.90
4697;DHT22;2362;50.780;0.292;2023-06-26T10:27:21;22.40;99.90
4697;DHT22;2362;50.780;0.292;2023-06-26T10:29:53;22.90;99.90
4697;DHT22;2362;50.780;0.292;2023-06-26T10:32:20;23.20;99.90
4697;DHT22;2362;50.780;0.292;2023-06-26T10:34:47;22.90;99.90
4697;DHT22;2362;50.780;0.292;2023-06-26T10:37:13;22.80;99.90
4697;DHT22;2362;50.780;0.292;2023-06-26T10:39:52;22.80;99.90
4697;DHT22;2362;50.780;0.292;2023-06-26T10:42:35;22.70;99.90
4697;DHT22;2362;50.780;0.292;2023-06-26T10:45:17;22.60;99.90
4697;DHT22;2362;50.780;0.292;2023-06-26T10:47:46;22.50;99.90
4697;DHT22;2362;50.780;0.292;2023-06-26T10:50:26;22.40;99.90
4697;DHT22;2362;50.780;0.292;2023-06-26T10:55:49;22.60;99.90
4697;DHT22;2362;50.780;0.292;2023-06-26T11:03:42;22.90;99.90
4697;DHT22;2362;50.780;0.292;2023-06-26T11:06:10;22.60;99.90
4697;DHT22;2362;50.780;0.292;2023-06-26T11:11:12;23.00;99.90
4697;DHT22;2362;50.780;0.292;2023-06-26T11:13:39;23.10;99.90
4697;DHT22;2362;50.780;0.292;2023-06-26T11:16:05;23.00;99.90
4697;DHT22;2362;50.780;0.292;2023-06-26T11:18:31;22.90;99.90
4697;DHT22;2362;50.780;0.292;2023-06-26T11:21:08;23.00;99.90
4697;DHT22;2362;50.780;0.292;2023-06-26T11:23:37;22.50;99.90
4697;DHT22;2362;50.780;0.292;2023-06-26T11:26:21;22.50;99.90
4697;DHT22;2362;50.780;0.292;2023-06-26T11:28:52;22.80;99.90
4697;DHT22;2362;50.780;0.292;2023-06-26T11:31:34;23.00;99.90
4697;DHT22;2362;50.780;0.292;2023-06-26T11:34:02;22.80;99.90
4697;DHT22;2362;50.780;0.292;2023-06-26T11:36:29;22.60;99.90
4697;DHT22;2362;50.780;0.292;2023-06-26T11:39:01;22.70;99.90
4697;DHT22;2362;50.780;0.292;2023-06-26T11:41:30;22.80;99.90
4697;DHT22;2362;50.780;0.292;2023-06-26T11:44:00;22.80;99.90
4697;DHT22;2362;50.780;0.292;2023-06-26T11:46:26;22.50;99.90
4697;DHT22;2362;50.780;0.292;2023-06-26T11:48:52;22.40;99.90
4697;DHT22;2362;50.780;0.292;2023-06-26T11:51:18;22.70;99.90
4697;DHT22;2362;50.780;0.292;2023-06-26T11:53:45;22.90;99.90
4697;DHT22;2362;50.780;0.292;2023-06-26T11:56:15;22.50;99.90
4697;DHT22;2362;50.780;0.292;2023-06-26T12:01:34;22.70;99.90
4697;DHT22;2362;50.780;0.292;2023-06-26T12:04:01;22.60;99.90
4697;DHT22;2362;50.780;0.292;2023-06-26T12:06:30;22.40;99.90
4697;DHT22;2362;50.780;0.292;2023-06-26T12:08:57;22.50;99.90
4697;DHT22;2362;50.780;0.292;2023-06-26T12:11:24;22.50;99.90
4697;DHT22;2362;50.780;0.292;2023-06-26T12:13:51;22.70;99.90
4697;DHT22;2362;50.780;0.292;2023-06-26T12:16:17;22.50;99.90
4697;DHT22;2362;50.780;0.292;2023-06-26T12:18:43;22.50;99.90
4697;DHT22;2362;50.780;0.292;2023-06-26T12:21:28;22.30;99.90
4697;DHT22;2362;50.780;0.292;2023-06-26T12:23:58;22.50;99.90
4697;DHT22;2362;50.780;0.292;2023-06-26T12:26:26;22.70;99.90
4697;DHT22;2362;50.780;0.292;2023-06-26T12:28:52;22.90;99.90
4697;DHT22;2362;50.780;0.292;2023-06-26T12:31:20;22.50;99.90
4697;DHT22;2362;50.780;0.292;2023-06-26T12:33:47;22.40;99.90
4697;DHT22;2362;50.780;0.292;2023-06-26T12:36:13;22.30;99.90
4697;DHT22;2362;50.780;0.292;2023-06-26T12:38:44;22.20;99.90
4697;DHT22;2362;50.780;0.292;2023-06-26T12:41:13;22.50;99.90
4697;DHT22;2362;50.780;0.292;2023-06-26T12:43:43;22.70;99.90
4697;DHT22;2362;50.780;0.292;2023-06-26T12:46:08;22.90;99.90
4697;DHT22;2362;50.780;0.292;2023-06-26T12:48:42;22.80;99.90
4697;DHT22;2362;50.780;0.292;2023-06-26T12:51:17;22.50;99.90
4697;DHT22;2362;50.780;0.292;2023-06-26T12:53:43;22.50;99.90
4697;DHT22;2362;50.780;0.292;2023-06-26T12:56:10;22.60;99.90
4697;DHT22;2362;50.780;0.292;2023-06-26T12:58:37;22.60;99.90
4697;DHT22;2362;50.780;0.292;2023-06-26T13:01:04;22.70;99.90
4697;DHT22;2362;50.780;0.292;2023-06-26T13:03:31;22.50;99.90
4697;DHT22;2362;50.780;0.292;2023-06-26T13:05:57;22.30;99.90
4697;DHT22;2362;50.780;0.292;2023-06-26T13:08:22;22.20;99.90
4697;DHT22;2362;50.780;0.292;2023-06-26T13:10:48;22.50;99.90
4697;DHT22;2362;50.780;0.292;2023-06-26T13:13:14;22.10;99.90
4697;DHT22;2362;50.780;0.292;2023-06-26T13:15:40;22.00;99.90
4697;DHT22;2362;50.780;0.292;2023-06-26T13:18:05;22.20;99.90
4697;DHT22;2362;50.780;0.292;2023-06-26T13:20:31;22.30;99.90
4697;DHT22;2362;50.780;0.292;2023-06-26T13:22:57;22.40;99.90
4697;DHT22;2362;50.780;0.292;2023-06-26T13:25:22;22.30;99.90
4697;DHT22;2362;50.780;0.292;2023-06-26T13:27:48;22.40;99.90
4697;DHT22;2362;50.780;0.292;2023-06-26T13:30:15;22.50;99.90
4697;DHT22;2362;50.780;0.292;2023-06-26T13:32:41;22.60;99.90
4697;DHT22;2362;50.780;0.292;2023-06-26T13:35:08;22.40;99.90
4697;DHT22;2362;50.780;0.292;2023-06-26T13:37:35;22.50;99.90
4697;DHT22;2362;50.780;0.292;2023-06-26T13:40:01;22.70;99.90
4697;DHT22;2362;50.780;0.292;2023-06-26T13:42:28;22.60;99.90
4697;DHT22;2362;50.780;0.292;2023-06-26T13:44:54;22.60;99.90
4697;DHT22;2362;50.780;0.292;2023-06-26T13:47:19;22.70;99.90
4697;DHT22;2362;50.780;0.292;2023-06-26T13:49:45;22.30;99.90
4697;DHT22;2362;50.780;0.292;2023-06-26T13:52:11;22.10;99.90
4697;DHT22;2362;50.780;0.292;2023-06-26T13:54:37;22.30;99.90
4697;DHT22;2362;50.780;0.292;2023-06-26T13:57:05;22.40;99.90
4697;DHT22;2362;50.780;0.292;2023-06-26T13:59:32;22.60;99.90
4697;DHT22;2362;50.780;0.292;2023-06-26T14:01:57;22.70;99.90
4697;DHT22;2362;50.780;0.292;2023-06-26T14:04:24;23.00;99.90
4697;DHT22;2362;50.780;0.292;2023-06-26T14:06:50;22.40;99.90
4697;DHT22;2362;50.780;0.292;2023-06-26T14:09:16;22.30;99.90
4697;DHT22;2362;50.780;0.292;2023-06-26T14:11:42;22.10;99.90
4697;DHT22;2362;50.780;0.292;2023-06-26T14:14:08;22.20;99.90
4697;DHT22;2362;50.780;0.292;2023-06-26T14:16:34;22.20;99.90
4697;DHT22;2362;50.780;0.292;2023-06-26T14:19:00;22.10;99.90
4697;DHT22;2362;50.780;0.292;2023-06-26T14:21:25;22.00;99.90
4697;DHT22;2362;50.780;0.292;2023-06-26T14:23:53;22.10;99.90
4697;DHT22;2362;50.780;0.292;2023-06-26T14:26:19;22.10;99.90
4697;DHT22;2362;50.780;0.292;2023-06-26T14:28:44;22.00;99.90
4697;DHT22;2362;50.780;0.292;2023-06-26T14:31:10;21.90;99.90
4697;DHT22;2362;50.780;0.292;2023-06-26T14:33:36;22.10;99.90
4697;DHT22;2362;50.780;0.292;2023-06-26T14:36:02;22.20;99.90
4697;DHT22;2362;50.780;0.292;2023-06-26T14:38:28;22.00;99.90
4697;DHT22;2362;50.780;0.292;2023-06-26T14:40:53;21.90;99.90
4697;DHT22;2362;50.780;0.292;2023-06-26T14:43:19;21.80;99.90
4697;DHT22;2362;50.780;0.292;2023-06-26T14:45:45;21.80;99.90
4697;DHT22;2362;50.780;0.292;2023-06-26T14:48:10;22.00;99.90
4697;DHT22;2362;50.780;0.292;2023-06-26T14:50:36;21.80;99.90
4697;DHT22;2362;50.780;0.292;2023-06-26T14:53:01;21.70;99.90
4697;DHT22;2362;50.780;0.292;2023-06-26T14:55:28;21.60;99.90
4697;DHT22;2362;50.780;0.292;2023-06-26T14:57:53;21.60;99.90
4697;DHT22;2362;50.780;0.292;2023-06-26T15:00:19;21.80;99.90
4697;DHT22;2362;50.780;0.292;2023-06-26T15:02:45;21.80;99.90
4697;DHT22;2362;50.780;0.292;2023-06-26T15:05:10;21.80;99.90
4697;DHT22;2362;50.780;0.292;2023-06-26T15:07:36;21.60;99.90
4697;DHT22;2362;50.780;0.292;2023-06-26T15:10:02;21.70;99.90
4697;DHT22;2362;50.780;0.292;2023-06-26T15:12:27;21.90;99.90
4697;DHT22;2362;50.780;0.292;2023-06-26T15:14:53;21.60;99.90
4697;DHT22;2362;50.780;0.292;2023-06-26T15:17:19;21.50;99.90
4697;DHT22;2362;50.780;0.292;2023-06-26T15:19:44;21.60;99.90
4697;DHT22;2362;50.780;0.292;2023-06-26T15:22:10;21.90;99.90
4697;DHT22;2362;50.780;0.292;2023-06-26T15:24:35;22.10;99.90
4697;DHT22;2362;50.780;0.292;2023-06-26T15:27:01;22.10;99.90
4697;DHT22;2362;50.780;0.292;2023-06-26T15:29:27;21.90;99.90
4697;DHT22;2362;50.780;0.292;2023-06-26T15:31:53;21.60;99.90
4697;DHT22;2362;50.780;0.292;2023-06-26T15:34:19;21.70;99.90
4697;DHT22;2362;50.780;0.292;2023-06-26T15:36:45;21.70;99.90
4697;DHT22;2362;50.780;0.292;2023-06-26T15:39:10;21.70;99.90
4697;DHT22;2362;50.780;0.292;2023-06-26T15:41:36;21.70;99.90
4697;DHT22;2362;50.780;0.292;2023-06-26T15:44:03;21.50;99.90
4697;DHT22;2362;50.780;0.292;2023-06-26T15:46:29;21.50;99.90
4697;DHT22;2362;50.780;0.292;2023-06-26T15:48:55;21.30;99.90
4697;DHT22;2362;50.780;0.292;2023-06-26T15:51:21;21.20;99.90
4697;DHT22;2362;50.780;0.292;2023-06-26T15:53:47;21.30;99.90
4697;DHT22;2362;50.780;0.292;2023-06-26T15:56:13;21.30;99.90
4697;DHT22;2362;50.780;0.292;2023-06-26T15:58:39;21.40;99.90
4697;DHT22;2362;50.780;0.292;2023-06-26T16:01:10;21.60;99.90
4697;DHT22;2362;50.780;0.292;2023-06-26T16:03:40;21.70;99.90
4697;DHT22;2362;50.780;0.292;2023-06-26T16:06:09;21.60;99.90
4697;DHT22;2362;50.780;0.292;2023-06-26T16:08:36;21.60;99.90
4697;DHT22;2362;50.780;0.292;2023-06-26T16:11:02;21.50;99.90
4697;DHT22;2362;50.780;0.292;2023-06-26T16:13:28;21.50;99.90
4697;DHT22;2362;50.780;0.292;2023-06-26T16:15:54;21.50;99.90
4697;DHT22;2362;50.780;0.292;2023-06-26T16:18:19;21.40;99.90
4697;DHT22;2362;50.780;0.292;2023-06-26T16:20:45;21.30;99.90